Time;durP1;ratioP1;P1;durP2;ratioP2;P2;SDS_P1;SDS_P2;PMS_P1;PMS_P2;Temp;Humidity;BMP_temperature;BMP_pressure;BME280_temperature;BME280_humidity;BME280_pressure;Samples;Min_cycle;Max_cycle;Signal;HPM_P1;HPM_P2
2022/01/12 00:01:54;;;;;;;18.52;13.38;;;5.30;99.90;;;;;;5093887;28;20258;-71
2022/01/12 00:04:22;;;;;;;22.65;11.15;;;5.30;99.90;;;;;;5090592;28;20198;-71
2022/01/12 00:06:48;;;;;;;22.38;13.60;;;5.30;99.90;;;;;;5093535;28;20285;-71
2022/01/12 00:09:15;;;;;;;18.00;14.13;;;5.30;99.90;;;;;;5093964;28;20222;-72
2022/01/12 00:11:42;;;;;;;13.98;11.10;;;5.30;99.90;;;;;;5099191;28;20263;-70
2022/01/12 00:14:09;;;;;;;18.60;11.57;;;5.30;99.90;;;;;;5106737;28;20241;-71
2022/01/12 00:16:36;;;;;;;21.00;13.27;;;5.30;99.90;;;;;;5117279;28;20221;-70
2022/01/12 00:19:05;;;;;;;21.30;12.85;;;5.20;99.90;;;;;;5125311;28;20229;-72
2022/01/12 00:21:32;;;;;;;16.83;12.10;;;5.20;99.90;;;;;;5128034;28;20292;-70
2022/01/12 00:23:59;;;;;;;16.08;10.57;;;5.20;99.90;;;;;;5131700;28;20189;-70
2022/01/12 00:26:42;;;;;;;21.00;13.05;;;5.30;99.90;;;;;;5124658;28;20252;-70
2022/01/12 00:34:39;;;;;;;14.35;11.25;;;5.30;99.90;;;;;;5100604;28;20348;-70
2022/01/12 00:37:06;;;;;;;18.08;14.18;;;5.30;99.90;;;;;;5093830;28;20305;-70
2022/01/12 00:39:33;;;;;;;16.17;10.90;;;5.30;99.90;;;;;;5093355;28;20272;-70
2022/01/12 00:42:02;;;;;;;25.45;14.52;;;5.20;99.90;;;;;;5093848;28;20254;-70
2022/01/12 00:44:35;;;;;;;19.08;12.70;;;5.20;99.90;;;;;;5094074;28;20269;-71
2022/01/12 00:47:02;;;;;;;16.35;12.00;;;5.20;99.90;;;;;;5089496;28;20202;-70
2022/01/12 00:49:29;;;;;;;18.48;13.02;;;5.20;99.90;;;;;;5089729;28;20213;-71
2022/01/12 00:51:57;;;;;;;24.17;14.88;;;5.20;99.90;;;;;;5093073;28;20648;-71
2022/01/12 00:54:25;;;;;;;19.95;13.90;;;5.20;99.90;;;;;;5091240;28;20240;-71
2022/01/12 00:56:52;;;;;;;24.98;15.23;;;5.00;99.90;;;;;;5093181;28;20664;-70
2022/01/12 00:59:19;;;;;;;19.58;14.77;;;5.00;99.90;;;;;;5081954;28;20199;-71
2022/01/12 01:01:46;;;;;;;24.55;15.80;;;5.00;99.90;;;;;;5092695;28;20220;-70
2022/01/12 01:04:13;;;;;;;28.02;16.83;;;4.90;99.90;;;;;;5093016;28;20241;-71
2022/01/12 01:06:40;;;;;;;21.60;15.95;;;4.80;99.90;;;;;;5092711;28;20286;-71
2022/01/12 01:09:08;;;;;;;29.05;18.35;;;4.80;99.90;;;;;;5087139;28;20720;-71
2022/01/12 01:11:35;;;;;;;33.90;16.20;;;4.80;99.90;;;;;;5091178;28;20312;-71
2022/01/12 01:14:13;;;;;;;28.17;17.88;;;4.80;99.90;;;;;;5088352;28;20582;-71
2022/01/12 01:16:50;;;;;;;28.83;19.05;;;4.80;99.90;;;;;;5090677;28;20704;-71
2022/01/12 01:27:35;;;;;;;26.77;18.17;;;4.70;99.90;;;;;;5083920;28;20213;-70
2022/01/12 01:30:02;;;;;;;27.27;20.33;;;4.60;99.90;;;;;;5085318;28;20195;-71
2022/01/12 01:32:29;;;;;;;31.67;21.02;;;4.60;99.90;;;;;;5089941;28;20224;-71
2022/01/12 01:34:56;;;;;;;28.00;19.33;;;4.60;99.90;;;;;;5085395;28;20225;-71
2022/01/12 01:37:23;;;;;;;27.75;20.33;;;4.50;99.90;;;;;;5087446;28;20206;-70
2022/01/12 01:39:51;;;;;;;31.67;19.33;;;4.50;99.90;;;;;;5085456;28;20238;-70
2022/01/12 01:42:23;;;;;;;37.95;23.13;;;4.50;99.90;;;;;;5088526;28;20305;-70
2022/01/12 01:53:21;;;;;;;30.92;20.90;;;4.40;99.90;;;;;;5086815;28;20200;-70
2022/01/12 01:55:51;;;;;;;30.83;20.63;;;4.50;99.90;;;;;;5085783;28;20203;-71
2022/01/12 01:58:18;;;;;;;42.40;23.77;;;4.50;99.90;;;;;;5086772;28;20305;-71
2022/01/12 02:00:45;;;;;;;34.97;22.70;;;4.50;99.90;;;;;;5085917;28;20280;-71
2022/01/12 02:03:12;;;;;;;42.10;26.30;;;4.50;99.90;;;;;;5090710;28;20293;-71
2022/01/12 02:05:39;;;;;;;39.65;22.95;;;4.40;99.90;;;;;;5089380;28;20226;-71
2022/01/12 02:08:07;;;;;;;36.25;25.02;;;4.30;99.90;;;;;;5093141;28;20199;-71
2022/01/12 02:10:34;;;;;;;35.63;25.98;;;4.40;99.90;;;;;;5086485;28;20656;-70
2022/01/12 02:13:03;;;;;;;42.35;25.55;;;4.40;99.90;;;;;;5087408;28;20281;-70
2022/01/12 02:15:30;;;;;;;43.03;27.23;;;4.30;99.90;;;;;;5093333;28;20309;-71
2022/01/12 02:18:07;;;;;;;43.55;27.75;;;4.30;99.90;;;;;;5090564;28;20289;-70
2022/01/12 02:40:20;;;;;;;41.10;26.70;;;4.50;99.90;;;;;;5090982;28;20205;-70
2022/01/12 02:42:56;;;;;;;44.95;26.13;;;4.40;99.90;;;;;;5093158;28;20210;-69
2022/01/12 02:51:09;;;;;;;45.85;28.38;;;4.40;99.90;;;;;;5094632;28;20224;-69
2022/01/12 02:53:39;;;;;;;59.90;30.27;;;4.40;99.90;;;;;;5093458;28;20251;-71
2022/01/12 02:56:08;;;;;;;45.80;26.70;;;4.50;99.90;;;;;;5090522;28;20285;-71
2022/01/12 02:58:35;;;;;;;48.40;28.98;;;4.50;99.90;;;;;;5091669;28;20285;-70
2022/01/12 03:01:30;;;;;;;47.50;28.02;;;4.50;99.90;;;;;;5090234;28;20222;-70
2022/01/12 03:03:59;;;;;;;48.55;29.48;;;4.50;99.90;;;;;;5092112;28;20553;-70
2022/01/12 03:06:30;;;;;;;41.55;26.38;;;4.60;99.90;;;;;;5095312;28;20198;-70
2022/01/12 03:08:57;;;;;;;39.03;26.25;;;4.60;99.90;;;;;;5088809;28;20578;-71
2022/01/12 03:11:27;;;;;;;42.47;26.67;;;4.50;99.90;;;;;;5081055;28;20309;-70
2022/01/12 03:13:54;;;;;;;57.42;28.75;;;4.50;99.90;;;;;;5088321;28;20267;-71
2022/01/12 03:16:25;;;;;;;59.85;28.27;;;4.60;99.90;;;;;;5092727;28;20202;-71
2022/01/12 03:18:54;;;;;;;45.08;29.33;;;4.50;99.90;;;;;;5095061;28;20657;-70
2022/01/12 03:21:23;;;;;;;55.63;32.17;;;4.50;99.90;;;;;;5094114;28;20218;-70
2022/01/12 03:23:51;;;;;;;50.65;29.10;;;4.60;99.90;;;;;;5088742;28;20198;-70
2022/01/12 03:26:19;;;;;;;52.58;31.58;;;4.60;99.90;;;;;;5091773;28;20702;-71
2022/01/12 03:28:52;;;;;;;54.22;29.67;;;4.70;99.90;;;;;;5089648;28;20208;-71
2022/01/12 03:31:21;;;;;;;63.72;32.67;;;4.70;99.90;;;;;;5084439;28;20218;-71
2022/01/12 03:33:59;;;;;;;57.75;33.22;;;4.70;99.90;;;;;;5094383;28;20206;-70
2022/01/12 03:36:39;;;;;;;78.15;34.28;;;4.60;99.90;;;;;;5095078;28;20665;-70
2022/01/12 03:39:10;;;;;;;69.80;38.15;;;4.60;99.90;;;;;;5095352;28;20210;-69
2022/01/12 03:41:42;;;;;;;79.03;38.25;;;4.60;99.90;;;;;;5094410;28;20226;-72
2022/01/12 03:44:12;;;;;;;89.63;41.28;;;4.50;99.90;;;;;;5094917;28;20182;-72
2022/01/12 03:46:44;;;;;;;93.75;40.53;;;4.50;99.90;;;;;;5094998;28;20234;-71
2022/01/12 03:49:11;;;;;;;81.93;41.25;;;4.50;99.90;;;;;;5094886;28;20643;-71
2022/01/12 03:51:38;;;;;;;85.50;40.70;;;4.50;99.90;;;;;;5094293;28;20264;-72
2022/01/12 03:54:06;;;;;;;70.47;36.15;;;4.40;99.90;;;;;;5094619;28;20209;-71
2022/01/12 03:56:33;;;;;;;93.03;40.22;;;4.50;99.90;;;;;;5094895;28;20212;-71
2022/01/12 03:59:00;;;;;;;91.90;42.38;;;4.50;99.90;;;;;;5094608;28;20205;-71
2022/01/12 04:01:28;;;;;;;65.68;38.35;;;4.50;99.90;;;;;;5094192;28;20226;-71
2022/01/12 04:04:02;;;;;;;72.95;35.60;;;4.50;99.90;;;;;;5091819;28;20208;-71
2022/01/12 04:09:13;;;;;;;80.10;39.00;;;4.50;99.90;;;;;;5094696;28;20189;-72
2022/01/12 04:11:40;;;;;;;95.60;44.30;;;4.50;99.90;;;;;;5093721;28;20254;-71
2022/01/12 04:14:09;;;;;;;112.68;43.75;;;4.40;99.90;;;;;;5094818;28;20285;-72
2022/01/12 04:16:38;;;;;;;99.30;41.05;;;4.50;99.90;;;;;;5095129;28;20190;-72
2022/01/12 04:19:05;;;;;;;79.03;39.80;;;4.40;99.90;;;;;;5094288;28;20648;-71
2022/01/12 04:21:40;;;;;;;83.03;40.72;;;4.50;99.90;;;;;;5093858;28;20226;-71
2022/01/12 04:24:07;;;;;;;88.15;42.45;;;4.40;99.90;;;;;;5076153;28;20210;-71
2022/01/12 04:26:34;;;;;;;79.63;39.33;;;4.50;99.90;;;;;;5093425;28;20737;-72
2022/01/12 04:29:01;;;;;;;100.18;42.10;;;4.50;99.90;;;;;;5094262;28;20202;-71
2022/01/12 04:31:28;;;;;;;101.45;45.13;;;4.50;99.90;;;;;;5093278;28;20241;-72
2022/01/12 04:33:56;;;;;;;110.40;43.60;;;4.50;99.90;;;;;;5094277;28;20281;-71
2022/01/12 04:36:23;;;;;;;96.70;42.22;;;4.50;99.90;;;;;;5093919;28;20217;-71
2022/01/12 04:38:50;;;;;;;97.43;41.63;;;4.50;99.90;;;;;;5094271;28;20547;-71
2022/01/12 04:41:16;;;;;;;89.63;38.20;;;4.50;99.90;;;;;;5093157;28;20308;-71
2022/01/12 04:43:44;;;;;;;93.40;41.33;;;4.50;99.90;;;;;;5093730;28;20234;-71
2022/01/12 04:46:37;;;;;;;89.97;40.67;;;4.50;99.90;;;;;;5093833;28;20239;-71
2022/01/12 04:51:51;;;;;;;88.95;39.75;;;4.50;99.90;;;;;;5078774;28;20218;-71
2022/01/12 04:54:18;;;;;;;92.22;42.28;;;4.50;99.90;;;;;;5093707;28;20193;-71
2022/01/12 04:56:45;;;;;;;104.47;42.88;;;4.60;99.90;;;;;;5093907;28;20183;-71
2022/01/12 04:59:12;;;;;;;73.47;36.78;;;4.60;99.90;;;;;;5093678;28;20633;-72
2022/01/12 05:01:48;;;;;;;73.57;36.08;;;4.50;99.90;;;;;;5092466;28;20265;-71
2022/01/12 05:10:02;;;;;;;81.80;36.85;;;4.60;99.90;;;;;;5091312;28;20206;-72
2022/01/12 05:12:51;;;;;;;65.53;37.83;;;4.60;99.90;;;;;;5093710;28;20218;-71
2022/01/12 05:15:25;;;;;;;76.68;37.15;;;4.50;99.90;;;;;;5093156;28;20594;-72
2022/01/12 05:17:53;;;;;;;89.97;39.53;;;4.50;99.90;;;;;;5075130;28;20220;-71
2022/01/12 05:20:22;;;;;;;77.28;38.53;;;4.60;99.90;;;;;;5092410;28;20552;-72
2022/01/12 05:22:49;;;;;;;59.70;34.15;;;4.60;99.90;;;;;;5093302;28;20182;-71
2022/01/12 05:25:18;;;;;;;82.45;36.05;;;4.60;99.90;;;;;;5093549;28;20281;-71
2022/01/12 05:27:45;;;;;;;97.47;38.55;;;4.60;99.90;;;;;;5093135;28;20208;-71
2022/01/12 05:30:13;;;;;;;79.53;34.78;;;4.60;99.90;;;;;;5092653;28;20561;-71
2022/01/12 05:32:41;;;;;;;66.88;34.17;;;4.50;99.90;;;;;;5093752;28;20229;-71
2022/01/12 05:35:11;;;;;;;86.65;35.00;;;4.60;99.90;;;;;;5093570;28;20341;-71
2022/01/12 05:37:40;;;;;;;79.97;34.83;;;4.60;99.90;;;;;;5100212;28;20216;-71
2022/01/12 05:40:08;;;;;;;89.82;38.80;;;4.60;99.90;;;;;;5106986;28;20210;-71
2022/01/12 05:42:35;;;;;;;86.07;37.78;;;4.60;99.90;;;;;;5112061;28;20285;-71
2022/01/12 05:45:04;;;;;;;82.78;38.08;;;4.70;99.90;;;;;;5113051;28;20178;-72
2022/01/12 05:47:39;;;;;;;91.47;38.60;;;4.60;99.90;;;;;;5101490;28;20604;-71
2022/01/12 05:50:06;;;;;;;86.35;34.92;;;4.70;99.90;;;;;;5078005;28;20237;-71
2022/01/12 05:52:33;;;;;;;84.72;38.78;;;4.60;99.90;;;;;;5089641;28;20617;-71
2022/01/12 05:55:02;;;;;;;73.85;33.08;;;4.60;99.90;;;;;;5091267;28;20291;-71
2022/01/12 05:57:29;;;;;;;74.65;36.38;;;4.70;99.90;;;;;;5093098;28;20198;-71
2022/01/12 05:59:56;;;;;;;69.20;35.80;;;4.60;99.90;;;;;;5087721;28;20606;-71
2022/01/12 06:02:23;;;;;;;74.63;38.38;;;4.60;99.90;;;;;;5087163;28;20222;-71
2022/01/12 06:04:50;;;;;;;76.47;37.58;;;4.70;99.90;;;;;;5083726;28;20187;-71
2022/01/12 06:07:17;;;;;;;65.35;34.22;;;4.60;99.90;;;;;;5089473;28;20198;-72
2022/01/12 06:09:45;;;;;;;77.00;37.13;;;4.70;99.90;;;;;;5087235;28;20290;-72
2022/01/12 06:12:14;;;;;;;86.95;39.78;;;4.70;99.90;;;;;;5091706;28;20218;-73
2022/01/12 06:14:41;;;;;;;71.43;36.17;;;4.70;99.90;;;;;;5085107;28;20285;-73
2022/01/12 06:17:09;;;;;;;76.35;34.67;;;4.70;99.90;;;;;;5089114;28;20210;-73
2022/01/12 06:19:36;;;;;;;80.50;35.47;;;4.70;99.90;;;;;;5089746;28;20631;-73
2022/01/12 06:22:04;;;;;;;77.13;34.35;;;4.80;99.90;;;;;;5087605;28;20305;-73
2022/01/12 06:24:31;;;;;;;86.72;37.35;;;4.70;99.90;;;;;;5080520;28;20203;-73
2022/01/12 06:26:58;;;;;;;63.70;32.80;;;4.70;99.90;;;;;;5085523;28;20285;-72
2022/01/12 06:29:39;;;;;;;85.43;36.22;;;4.70;99.90;;;;;;5095141;28;20736;-73
2022/01/12 06:32:07;;;;;;;76.43;34.63;;;4.70;99.90;;;;;;5089268;28;20213;-73
2022/01/12 06:34:34;;;;;;;67.28;37.60;;;4.60;99.90;;;;;;5095871;28;20285;-72
2022/01/12 06:37:03;;;;;;;99.80;37.53;;;4.60;99.90;;;;;;5089483;28;20229;-73
2022/01/12 06:39:29;;;;;;;72.45;37.83;;;4.70;99.90;;;;;;5094633;28;20271;-74
2022/01/12 06:41:57;;;;;;;68.18;33.55;;;4.70;99.90;;;;;;5088676;28;20252;-73
2022/01/12 06:44:25;;;;;;;80.93;35.40;;;4.80;99.90;;;;;;5094321;28;20234;-73
2022/01/12 06:46:56;;;;;;;87.32;41.20;;;4.80;99.90;;;;;;5088484;28;20194;-74
2022/01/12 06:49:23;;;;;;;68.90;37.15;;;4.80;99.90;;;;;;5094248;28;20565;-71
2022/01/12 06:51:50;;;;;;;72.38;36.20;;;4.80;99.90;;;;;;5086532;28;20751;-72
2022/01/12 06:54:17;;;;;;;66.80;33.42;;;4.90;99.90;;;;;;5089367;28;20669;-72
2022/01/12 06:56:44;;;;;;;74.15;37.13;;;5.10;99.90;;;;;;5094291;28;20222;-72
2022/01/12 06:59:11;;;;;;;75.65;33.63;;;5.10;99.90;;;;;;5101527;28;20289;-72
2022/01/12 07:01:39;;;;;;;75.40;35.95;;;5.10;99.90;;;;;;5099607;28;20355;-71
2022/01/12 07:04:20;;;;;;;60.50;32.47;;;5.10;99.90;;;;;;5094919;28;20633;-73
2022/01/12 07:06:48;;;;;;;70.22;31.55;;;5.10;99.90;;;;;;5088136;28;20247;-74
2022/01/12 07:09:15;;;;;;;77.63;36.72;;;5.10;99.90;;;;;;5095698;28;20194;-72
2022/01/12 07:11:42;;;;;;;65.45;32.47;;;5.10;99.90;;;;;;5088565;28;20309;-71
2022/01/12 07:14:09;;;;;;;81.30;33.75;;;5.10;99.90;;;;;;5091666;28;20215;-71
2022/01/12 07:16:36;;;;;;;66.65;32.85;;;5.10;99.90;;;;;;5086886;28;20266;-70
2022/01/12 07:19:03;;;;;;;55.95;30.50;;;5.20;99.90;;;;;;5091054;28;20396;-71
2022/01/12 07:21:32;;;;;;;71.88;33.95;;;5.30;99.90;;;;;;5088535;28;20253;-69
2022/01/12 07:23:59;;;;;;;68.40;32.15;;;5.30;99.90;;;;;;5088471;28;20194;-73
2022/01/12 07:26:26;;;;;;;57.33;27.75;;;5.30;99.90;;;;;;5082930;28;20559;-69
2022/01/12 07:28:53;;;;;;;66.18;30.30;;;5.50;99.90;;;;;;5079645;28;20235;-71
2022/01/12 07:31:20;;;;;;;69.32;33.22;;;5.70;99.90;;;;;;5079522;28;20223;-72
2022/01/12 07:33:47;;;;;;;75.25;32.35;;;5.50;99.90;;;;;;5087112;28;20281;-71
2022/01/12 07:36:15;;;;;;;62.25;31.52;;;5.40;99.90;;;;;;5088445;28;20210;-70
2022/01/12 07:38:44;;;;;;;85.90;33.78;;;5.40;99.90;;;;;;5091358;28;20227;-69
2022/01/12 07:41:11;;;;;;;65.55;34.13;;;5.30;99.90;;;;;;5088391;28;20309;-71
2022/01/12 07:43:38;;;;;;;72.30;32.80;;;5.20;99.90;;;;;;5093001;28;20306;-70
2022/01/12 07:46:04;;;;;;;75.43;33.00;;;5.20;99.90;;;;;;5090208;28;20195;-70
2022/01/12 07:48:31;;;;;;;65.13;31.27;;;5.20;99.90;;;;;;5084103;28;20210;-71
2022/01/12 07:50:58;;;;;;;65.90;31.90;;;5.20;99.90;;;;;;5087086;28;20734;-71
2022/01/12 07:53:25;;;;;;;67.82;31.90;;;5.20;99.90;;;;;;5085840;28;20286;-69
2022/01/12 07:55:53;;;;;;;70.95;31.65;;;5.10;99.90;;;;;;5090062;28;20214;-72
2022/01/12 07:58:20;;;;;;;71.32;35.17;;;5.20;99.90;;;;;;5091169;28;20552;-72
2022/01/12 08:00:47;;;;;;;67.72;30.80;;;5.50;99.90;;;;;;5085879;28;20229;-71
2022/01/12 08:03:15;;;;;;;67.10;31.33;;;5.60;99.90;;;;;;5090270;28;20259;-70
2022/01/12 08:05:44;;;;;;;66.25;34.42;;;5.60;99.90;;;;;;5093811;28;20246;-71
2022/01/12 08:08:12;;;;;;;54.80;29.13;;;5.70;99.90;;;;;;5087698;28;20669;-70
2022/01/12 08:10:39;;;;;;;56.53;28.85;;;5.80;99.90;;;;;;5082400;28;20200;-71
2022/01/12 08:13:07;;;;;;;60.28;27.90;;;5.90;99.90;;;;;;5078585;28;20222;-71
2022/01/12 08:15:34;;;;;;;52.30;24.08;;;6.00;99.90;;;;;;5088165;28;20239;-70
2022/01/12 08:18:03;;;;;;;49.08;26.15;;;6.30;99.90;;;;;;5080485;28;20201;-70
2022/01/12 08:20:30;;;;;;;56.22;25.88;;;6.30;99.90;;;;;;5077168;28;20344;-70
2022/01/12 08:22:58;;;;;;;44.53;25.75;;;6.40;99.90;;;;;;5093217;28;20254;-71
2022/01/12 08:25:26;;;;;;;37.90;21.20;;;6.50;99.90;;;;;;5087973;28;20220;-70
2022/01/12 08:27:53;;;;;;;43.92;23.50;;;7.00;99.90;;;;;;5085325;28;20648;-69
2022/01/12 08:30:28;;;;;;;48.42;27.45;;;7.00;99.90;;;;;;5083238;28;20202;-69
2022/01/12 08:32:57;;;;;;;63.80;30.27;;;6.80;99.90;;;;;;5074584;28;20280;-71
2022/01/12 08:35:24;;;;;;;65.05;31.45;;;6.40;99.90;;;;;;5085851;28;20648;-71
2022/01/12 08:37:51;;;;;;;55.30;27.50;;;6.40;99.90;;;;;;5093310;28;20211;-70
2022/01/12 08:40:19;;;;;;;57.25;30.98;;;6.30;99.90;;;;;;5083826;28;20290;-70
2022/01/12 08:42:47;;;;;;;66.97;31.60;;;6.10;99.90;;;;;;5091850;28;20203;-70
2022/01/12 08:45:15;;;;;;;65.65;29.65;;;5.90;99.90;;;;;;5094169;28;20207;-69
2022/01/12 08:47:43;;;;;;;71.95;31.00;;;5.80;99.90;;;;;;5094671;28;20268;-70
2022/01/12 08:50:11;;;;;;;64.35;33.45;;;5.70;99.90;;;;;;5086915;28;20635;-70
2022/01/12 08:52:43;;;;;;;72.53;31.25;;;5.70;99.90;;;;;;5084715;28;20630;-70
2022/01/12 08:55:10;;;;;;;72.82;32.40;;;5.70;99.90;;;;;;5092039;28;20204;-70
2022/01/12 08:57:37;;;;;;;67.32;31.77;;;5.70;99.90;;;;;;5091758;28;20696;-70
2022/01/12 09:00:06;;;;;;;72.75;30.10;;;5.70;99.90;;;;;;5088105;28;20624;-70
2022/01/12 09:02:34;;;;;;;65.57;30.10;;;5.70;99.90;;;;;;5085662;28;20315;-71
2022/01/12 09:05:03;;;;;;;48.85;24.90;;;5.70;99.90;;;;;;5092722;28;20606;-71
2022/01/12 09:07:30;;;;;;;52.00;26.75;;;5.80;99.90;;;;;;5081746;28;20226;-71
2022/01/12 09:09:57;;;;;;;66.57;30.65;;;5.90;99.90;;;;;;5080103;28;20297;-69
2022/01/12 09:12:24;;;;;;;64.22;32.22;;;6.00;99.90;;;;;;5085605;28;20223;-69
2022/01/12 09:14:53;;;;;;;61.33;33.58;;;6.00;99.90;;;;;;5093473;28;20689;-70
2022/01/12 09:17:23;;;;;;;65.75;35.60;;;6.00;99.90;;;;;;5091031;28;20217;-71
2022/01/12 09:19:52;;;;;;;66.07;30.30;;;6.10;99.90;;;;;;5098238;28;20195;-69
2022/01/12 09:22:21;;;;;;;58.25;30.92;;;6.00;99.90;;;;;;5100145;28;20333;-70
2022/01/12 09:24:49;;;;;;;56.38;30.55;;;6.00;99.90;;;;;;5105011;28;20200;-70
2022/01/12 09:27:18;;;;;;;64.10;31.60;;;5.90;99.90;;;;;;5108836;28;20207;-70
2022/01/12 09:29:45;;;;;;;58.70;30.98;;;5.90;99.90;;;;;;5089987;28;20199;-69
2022/01/12 09:32:12;;;;;;;72.72;32.00;;;6.00;99.90;;;;;;5092708;28;20371;-69
2022/01/12 09:34:39;;;;;;;63.83;29.70;;;5.90;99.90;;;;;;5088778;28;20258;-69
2022/01/12 09:37:06;;;;;;;69.85;29.40;;;6.00;99.90;;;;;;5083705;28;20285;-70
2022/01/12 09:39:35;;;;;;;67.82;30.17;;;5.90;99.90;;;;;;5089859;28;20209;-71
2022/01/12 09:42:03;;;;;;;77.32;32.58;;;5.90;99.90;;;;;;5084334;28;20222;-70
2022/01/12 09:44:31;;;;;;;66.55;30.80;;;5.90;99.90;;;;;;5091748;28;20213;-71
2022/01/12 09:47:00;;;;;;;68.85;34.22;;;5.90;99.90;;;;;;5070340;28;20302;-70
2022/01/12 09:49:27;;;;;;;75.80;33.28;;;5.90;99.90;;;;;;5092089;28;20240;-69
2022/01/12 09:51:57;;;;;;;74.53;33.70;;;6.00;99.90;;;;;;5091456;28;20254;-70
2022/01/12 09:54:25;;;;;;;82.10;34.70;;;6.00;99.90;;;;;;5088722;28;20199;-69
2022/01/12 09:56:54;;;;;;;70.20;33.15;;;6.10;99.90;;;;;;5082993;28;20212;-70
2022/01/12 09:59:22;;;;;;;71.07;35.03;;;6.20;99.90;;;;;;5091096;28;20233;-70
2022/01/12 10:01:49;;;;;;;77.03;34.15;;;6.30;99.90;;;;;;5091705;28;20324;-70
2022/01/12 10:04:18;;;;;;;70.63;29.65;;;6.40;99.90;;;;;;5088026;28;20204;-70
2022/01/12 10:06:47;;;;;;;68.85;30.75;;;6.50;99.90;;;;;;5076154;28;20206;-70
2022/01/12 10:09:15;;;;;;;81.40;34.75;;;6.50;99.90;;;;;;5088257;28;20200;-71
2022/01/12 10:11:51;;;;;;;57.95;29.80;;;6.50;99.90;;;;;;5076344;28;20254;-71
2022/01/12 10:14:19;;;;;;;58.50;30.65;;;6.60;99.90;;;;;;5076217;28;20706;-69
2022/01/12 10:16:55;;;;;;;58.03;30.13;;;6.60;99.90;;;;;;5091573;28;20222;-70
2022/01/12 10:19:27;;;;;;;47.88;24.92;;;6.80;99.90;;;;;;5081712;28;20197;-70
2022/01/12 10:21:55;;;;;;;54.97;29.75;;;6.80;99.90;;;;;;5087124;28;20221;-70
2022/01/12 10:24:22;;;;;;;49.00;24.35;;;6.90;99.90;;;;;;5090982;28;20201;-70
2022/01/12 10:26:50;;;;;;;46.40;24.98;;;6.80;99.90;;;;;;5088804;28;20221;-70
2022/01/12 10:29:20;;;;;;;48.28;24.08;;;6.90;99.90;;;;;;5090103;28;20212;-70
2022/01/12 10:31:55;;;;;;;48.88;24.88;;;7.00;99.90;;;;;;5095316;28;20312;-71
2022/01/12 10:34:25;;;;;;;47.42;24.77;;;7.10;99.90;;;;;;5093944;28;20218;-69
2022/01/12 10:36:54;;;;;;;56.88;27.30;;;7.10;99.90;;;;;;5088436;28;20293;-71
2022/01/12 10:39:23;;;;;;;54.15;28.45;;;7.00;99.90;;;;;;5091144;28;20559;-71
2022/01/12 10:41:57;;;;;;;54.67;27.98;;;7.00;99.90;;;;;;5087103;28;20311;-71
2022/01/12 10:44:28;;;;;;;59.15;29.25;;;7.00;99.90;;;;;;5086628;28;20247;-71
2022/01/12 10:47:10;;;;;;;52.85;26.70;;;7.00;99.90;;;;;;5088561;28;20229;-71
2022/01/12 10:49:39;;;;;;;49.40;26.95;;;7.10;99.90;;;;;;5093759;28;20633;-71
2022/01/12 10:52:09;;;;;;;44.95;26.00;;;7.00;99.90;;;;;;5088753;28;20222;-71
2022/01/12 10:54:48;;;;;;;55.58;26.70;;;7.00;99.90;;;;;;5090740;28;20209;-71
2022/01/12 10:57:18;;;;;;;45.92;22.08;;;6.90;99.90;;;;;;5091405;28;20301;-70
2022/01/12 10:59:59;;;;;;;48.10;25.48;;;6.90;99.90;;;;;;5093084;28;20251;-70
2022/01/12 11:02:28;;;;;;;41.40;22.80;;;7.00;99.90;;;;;;5092658;28;20224;-69
2022/01/12 11:04:56;;;;;;;51.65;23.23;;;6.90;99.90;;;;;;5090393;28;20403;-69
2022/01/12 11:07:24;;;;;;;48.28;20.98;;;7.10;99.90;;;;;;5090646;28;20624;-69
2022/01/12 11:09:52;;;;;;;44.45;25.30;;;7.30;99.90;;;;;;5084675;28;20256;-69
2022/01/12 11:12:18;;;;;;;54.33;21.38;;;7.30;99.90;;;;;;5088609;28;20226;-70
2022/01/12 11:14:48;;;;;;;44.75;22.45;;;7.40;99.90;;;;;;5090903;28;20645;-70
2022/01/12 11:17:16;;;;;;;46.60;22.70;;;7.60;99.90;;;;;;5085921;28;20237;-71
2022/01/12 11:19:53;;;;;;;46.70;21.95;;;7.50;99.90;;;;;;5086123;28;20213;-70
2022/01/12 11:22:35;;;;;;;43.53;20.40;;;7.60;99.90;;;;;;5090134;28;20293;-70
2022/01/12 11:25:03;;;;;;;44.53;22.90;;;7.60;99.90;;;;;;5069223;28;20206;-71
2022/01/12 11:27:30;;;;;;;41.30;21.30;;;7.60;99.90;;;;;;5092837;28;20288;-71
2022/01/12 11:29:59;;;;;;;36.92;21.70;;;7.70;99.90;;;;;;5085739;28;20219;-71
2022/01/12 11:32:26;;;;;;;38.33;21.38;;;7.80;99.90;;;;;;5091442;28;20222;-71
2022/01/12 11:35:03;;;;;;;37.70;19.58;;;8.10;99.90;;;;;;5093970;28;20287;-70
2022/01/12 11:37:30;;;;;;;38.40;19.23;;;8.10;99.90;;;;;;5092173;28;20257;-70
2022/01/12 11:40:08;;;;;;;36.28;21.02;;;8.00;99.90;;;;;;5093559;28;20204;-70
2022/01/12 11:42:36;;;;;;;36.95;21.00;;;8.20;99.90;;;;;;5074261;28;20213;-70
2022/01/12 11:45:07;;;;;;;40.70;20.70;;;8.30;99.90;;;;;;5088156;28;20206;-70
2022/01/12 11:47:44;;;;;;;42.47;20.15;;;8.50;99.90;;;;;;5093452;28;20205;-70
2022/01/12 11:50:12;;;;;;;38.25;20.48;;;8.30;99.90;;;;;;5094365;28;20241;-70
2022/01/12 11:52:39;;;;;;;33.40;18.70;;;8.20;99.90;;;;;;5098940;28;20214;-70
2022/01/12 11:55:12;;;;;;;35.58;20.75;;;8.20;99.90;;;;;;5094228;28;20201;-70
2022/01/12 11:57:42;;;;;;;35.20;20.23;;;8.00;99.90;;;;;;5103442;28;20210;-70
2022/01/12 12:00:13;;;;;;;39.25;20.30;;;8.00;99.90;;;;;;5106939;28;20201;-70
2022/01/12 12:02:51;;;;;;;37.20;18.92;;;7.70;99.90;;;;;;5092337;28;20718;-70
2022/01/12 12:05:20;;;;;;;36.30;19.55;;;7.70;99.90;;;;;;5090922;28;20202;-71
2022/01/12 12:07:49;;;;;;;31.58;17.70;;;7.60;99.90;;;;;;5085861;28;20286;-71
2022/01/12 12:10:19;;;;;;;33.20;17.17;;;7.70;99.90;;;;;;5088246;28;20240;-71
2022/01/12 12:12:47;;;;;;;36.40;18.52;;;7.70;99.90;;;;;;5082609;28;20201;-71
2022/01/12 12:15:15;;;;;;;35.83;17.58;;;7.80;99.90;;;;;;5085667;28;20260;-70
2022/01/12 12:17:43;;;;;;;30.15;14.77;;;8.00;99.90;;;;;;5080181;28;20289;-70
2022/01/12 12:20:13;;;;;;;24.58;14.73;;;8.10;99.90;;;;;;5081975;28;20689;-70
2022/01/12 12:22:42;;;;;;;27.52;15.57;;;8.10;99.90;;;;;;5086545;28;20250;-70
2022/01/12 12:25:12;;;;;;;39.28;17.70;;;8.00;99.90;;;;;;5088401;28;20664;-70
2022/01/12 12:27:41;;;;;;;31.02;16.20;;;8.00;99.90;;;;;;5084516;28;20196;-70
2022/01/12 12:30:12;;;;;;;31.25;16.73;;;8.00;99.90;;;;;;5089522;28;20227;-69
2022/01/12 12:32:44;;;;;;;30.80;17.50;;;8.20;99.90;;;;;;5084960;28;20308;-70
2022/01/12 12:35:12;;;;;;;31.10;16.10;;;8.40;99.90;;;;;;5090631;28;20656;-70
2022/01/12 12:37:42;;;;;;;35.88;17.70;;;8.50;99.90;;;;;;5092332;28;20376;-71
2022/01/12 12:40:19;;;;;;;31.67;17.80;;;8.50;99.90;;;;;;5082111;28;20282;-71
2022/01/12 12:42:48;;;;;;;34.80;15.90;;;8.50;99.90;;;;;;5085164;28;20238;-69
2022/01/12 12:45:15;;;;;;;32.15;17.38;;;8.60;99.90;;;;;;5090103;28;20612;-71
2022/01/12 12:47:52;;;;;;;31.58;17.55;;;8.50;99.90;;;;;;5077825;28;20229;-69
2022/01/12 12:50:19;;;;;;;23.48;13.88;;;8.50;99.90;;;;;;5087115;28;20214;-71
2022/01/12 12:52:47;;;;;;;23.60;14.63;;;8.60;99.90;;;;;;5085572;28;20305;-69
2022/01/12 12:55:15;;;;;;;28.25;14.80;;;8.80;99.90;;;;;;5090465;28;20209;-71
2022/01/12 12:57:53;;;;;;;28.75;11.70;;;8.80;99.90;;;;;;5092892;28;20249;-70
2022/01/12 13:00:22;;;;;;;26.17;9.15;;;8.80;99.90;;;;;;5089225;28;20202;-70
2022/01/12 13:02:52;;;;;;;22.77;9.18;;;8.80;99.90;;;;;;5092832;28;20206;-70
2022/01/12 13:05:21;;;;;;;20.70;8.20;;;8.90;99.90;;;;;;5092947;28;20202;-71
2022/01/12 13:07:49;;;;;;;22.80;8.32;;;8.80;99.90;;;;;;5092926;28;20649;-70
2022/01/12 13:10:17;;;;;;;19.35;8.40;;;8.70;99.90;;;;;;5089293;28;20282;-69
2022/01/12 13:12:46;;;;;;;28.08;9.82;;;8.70;99.90;;;;;;5086606;28;20218;-70
2022/01/12 13:15:22;;;;;;;32.00;9.40;;;8.90;99.90;;;;;;5085397;28;20314;-70
2022/01/12 13:17:59;;;;;;;19.38;8.68;;;8.80;99.90;;;;;;5079139;28;20278;-69
2022/01/12 13:23:13;;;;;;;17.23;9.48;;;8.60;99.90;;;;;;5077230;28;20570;-70
2022/01/12 13:25:40;;;;;;;26.17;8.63;;;8.40;99.90;;;;;;5085738;28;20224;-70
2022/01/12 13:28:07;;;;;;;21.88;9.50;;;8.50;99.90;;;;;;5082636;28;20202;-71
2022/01/12 13:30:35;;;;;;;22.70;9.30;;;8.40;99.90;;;;;;5081858;28;20286;-70
2022/01/12 13:33:04;;;;;;;25.52;12.10;;;8.50;99.90;;;;;;5085163;28;20234;-70
2022/01/12 13:35:34;;;;;;;31.52;12.50;;;8.60;99.90;;;;;;5090483;28;20210;-73
2022/01/12 13:38:03;;;;;;;23.92;10.27;;;8.50;99.90;;;;;;5086031;28;20255;-72
2022/01/12 13:40:35;;;;;;;20.35;10.25;;;8.50;99.90;;;;;;5089793;28;20313;-73
2022/01/12 13:43:02;;;;;;;24.33;11.32;;;8.50;99.90;;;;;;5088499;28;20658;-72
2022/01/12 13:45:37;;;;;;;18.52;12.35;;;8.30;99.90;;;;;;5085345;28;20286;-71
2022/01/12 13:48:13;;;;;;;27.60;10.75;;;8.40;99.90;;;;;;5066977;28;20202;-75
2022/01/12 13:50:42;;;;;;;31.52;12.23;;;8.30;99.90;;;;;;5071219;28;20198;-74